sensor_id;sensor_type;location;lat;lon;timestamp;P1;durP1;ratioP1;P2;durP2;ratioP2
76894;SDS011;65855;42.030;13.078;2024-03-29T00:00:41;7.72;;;2.15;;
76894;SDS011;65855;42.030;13.078;2024-03-29T00:03:10;11.95;;;5.28;;
76894;SDS011;65855;42.030;13.078;2024-03-29T00:05:35;18.30;;;6.97;;
76894;SDS011;65855;42.030;13.078;2024-03-29T00:08:01;17.23;;;6.65;;
76894;SDS011;65855;42.030;13.078;2024-03-29T00:10:26;6.50;;;2.20;;
76894;SDS011;65855;42.030;13.078;2024-03-29T00:12:51;12.67;;;5.83;;
76894;SDS011;65855;42.030;13.078;2024-03-29T00:15:17;3.73;;;1.20;;
76894;SDS011;65855;42.030;13.078;2024-03-29T00:17:42;8.13;;;2.92;;
76894;SDS011;65855;42.030;13.078;2024-03-29T00:20:07;9.15;;;4.85;;
76894;SDS011;65855;42.030;13.078;2024-03-29T00:22:33;8.20;;;1.98;;
76894;SDS011;65855;42.030;13.078;2024-03-29T00:24:58;8.70;;;2.88;;
76894;SDS011;65855;42.030;13.078;2024-03-29T00:27:24;7.70;;;3.27;;
76894;SDS011;65855;42.030;13.078;2024-03-29T00:29:51;9.60;;;1.70;;
76894;SDS011;65855;42.030;13.078;2024-03-29T00:32:20;8.40;;;2.80;;
76894;SDS011;65855;42.030;13.078;2024-03-29T00:34:45;7.40;;;3.47;;
76894;SDS011;65855;42.030;13.078;2024-03-29T00:37:13;8.13;;;1.35;;
76894;SDS011;65855;42.030;13.078;2024-03-29T00:39:39;4.05;;;1.15;;
76894;SDS011;65855;42.030;13.078;2024-03-29T00:42:04;6.38;;;1.95;;
76894;SDS011;65855;42.030;13.078;2024-03-29T00:44:33;7.65;;;3.10;;
76894;SDS011;65855;42.030;13.078;2024-03-29T00:47:00;6.63;;;2.05;;
76894;SDS011;65855;42.030;13.078;2024-03-29T00:49:25;8.52;;;1.85;;
76894;SDS011;65855;42.030;13.078;2024-03-29T00:51:51;9.02;;;1.77;;
76894;SDS011;65855;42.030;13.078;2024-03-29T00:54:16;9.57;;;1.80;;
76894;SDS011;65855;42.030;13.078;2024-03-29T00:56:41;8.45;;;1.45;;
76894;SDS011;65855;42.030;13.078;2024-03-29T00:59:07;5.72;;;2.22;;
76894;SDS011;65855;42.030;13.078;2024-03-29T01:01:33;9.20;;;1.23;;
76894;SDS011;65855;42.030;13.078;2024-03-29T01:03:58;9.38;;;2.33;;
76894;SDS011;65855;42.030;13.078;2024-03-29T01:06:23;11.97;;;2.23;;
76894;SDS011;65855;42.030;13.078;2024-03-29T01:08:49;14.02;;;3.65;;
76894;SDS011;65855;42.030;13.078;2024-03-29T01:11:14;9.52;;;2.78;;
76894;SDS011;65855;42.030;13.078;2024-03-29T01:13:40;9.27;;;1.92;;
76894;SDS011;65855;42.030;13.078;2024-03-29T01:16:05;8.27;;;2.00;;
76894;SDS011;65855;42.030;13.078;2024-03-29T01:18:31;11.52;;;2.63;;
76894;SDS011;65855;42.030;13.078;2024-03-29T01:20:56;10.13;;;3.05;;
76894;SDS011;65855;42.030;13.078;2024-03-29T01:23:22;9.80;;;3.00;;
76894;SDS011;65855;42.030;13.078;2024-03-29T01:25:47;11.87;;;2.60;;
76894;SDS011;65855;42.030;13.078;2024-03-29T01:28:12;9.30;;;3.40;;
76894;SDS011;65855;42.030;13.078;2024-03-29T01:30:38;9.87;;;3.33;;
76894;SDS011;65855;42.030;13.078;2024-03-29T01:33:03;14.87;;;4.70;;
76894;SDS011;65855;42.030;13.078;2024-03-29T01:35:28;10.85;;;3.30;;
76894;SDS011;65855;42.030;13.078;2024-03-29T01:37:54;9.10;;;3.50;;
76894;SDS011;65855;42.030;13.078;2024-03-29T01:40:19;11.30;;;3.10;;
76894;SDS011;65855;42.030;13.078;2024-03-29T01:42:44;12.85;;;4.13;;
76894;SDS011;65855;42.030;13.078;2024-03-29T01:45:10;19.67;;;4.87;;
76894;SDS011;65855;42.030;13.078;2024-03-29T01:47:35;8.40;;;3.50;;
76894;SDS011;65855;42.030;13.078;2024-03-29T01:50:01;16.73;;;3.83;;
76894;SDS011;65855;42.030;13.078;2024-03-29T01:52:26;13.00;;;3.40;;
76894;SDS011;65855;42.030;13.078;2024-03-29T01:54:52;12.45;;;3.47;;
76894;SDS011;65855;42.030;13.078;2024-03-29T01:57:18;13.48;;;4.55;;
76894;SDS011;65855;42.030;13.078;2024-03-29T01:59:43;8.02;;;2.58;;
76894;SDS011;65855;42.030;13.078;2024-03-29T02:02:10;13.73;;;3.17;;
76894;SDS011;65855;42.030;13.078;2024-03-29T02:04:36;7.25;;;3.33;;
76894;SDS011;65855;42.030;13.078;2024-03-29T02:07:02;9.23;;;1.98;;
76894;SDS011;65855;42.030;13.078;2024-03-29T02:09:28;11.07;;;2.45;;
76894;SDS011;65855;42.030;13.078;2024-03-29T02:11:54;6.30;;;2.40;;
76894;SDS011;65855;42.030;13.078;2024-03-29T02:14:19;8.63;;;3.10;;
76894;SDS011;65855;42.030;13.078;2024-03-29T02:16:44;8.90;;;3.38;;
76894;SDS011;65855;42.030;13.078;2024-03-29T02:19:09;11.50;;;3.25;;
76894;SDS011;65855;42.030;13.078;2024-03-29T02:21:36;20.23;;;4.25;;
76894;SDS011;65855;42.030;13.078;2024-03-29T02:24:05;12.80;;;4.28;;
76894;SDS011;65855;42.030;13.078;2024-03-29T02:26:31;14.75;;;3.03;;
76894;SDS011;65855;42.030;13.078;2024-03-29T02:29:00;12.23;;;2.88;;
76894;SDS011;65855;42.030;13.078;2024-03-29T02:31:26;14.25;;;5.30;;
76894;SDS011;65855;42.030;13.078;2024-03-29T02:33:51;16.42;;;5.95;;
76894;SDS011;65855;42.030;13.078;2024-03-29T02:36:16;10.77;;;2.95;;
76894;SDS011;65855;42.030;13.078;2024-03-29T02:38:42;15.43;;;3.78;;
76894;SDS011;65855;42.030;13.078;2024-03-29T02:41:07;9.27;;;2.65;;
76894;SDS011;65855;42.030;13.078;2024-03-29T02:43:32;9.67;;;2.53;;
76894;SDS011;65855;42.030;13.078;2024-03-29T02:45:58;12.30;;;3.10;;
76894;SDS011;65855;42.030;13.078;2024-03-29T02:48:23;16.08;;;3.70;;
76894;SDS011;65855;42.030;13.078;2024-03-29T02:50:48;13.63;;;3.60;;
76894;SDS011;65855;42.030;13.078;2024-03-29T02:53:14;12.83;;;4.03;;
76894;SDS011;65855;42.030;13.078;2024-03-29T02:55:40;16.60;;;4.10;;
76894;SDS011;65855;42.030;13.078;2024-03-29T02:58:06;15.45;;;3.50;;
76894;SDS011;65855;42.030;13.078;2024-03-29T03:00:31;6.13;;;2.33;;
76894;SDS011;65855;42.030;13.078;2024-03-29T03:02:56;9.50;;;2.97;;
76894;SDS011;65855;42.030;13.078;2024-03-29T03:05:22;8.97;;;2.67;;
76894;SDS011;65855;42.030;13.078;2024-03-29T03:07:47;7.93;;;3.00;;
76894;SDS011;65855;42.030;13.078;2024-03-29T03:10:31;9.73;;;2.65;;
76894;SDS011;65855;42.030;13.078;2024-03-29T03:13:14;13.95;;;2.70;;
76894;SDS011;65855;42.030;13.078;2024-03-29T03:15:40;9.32;;;2.80;;
76894;SDS011;65855;42.030;13.078;2024-03-29T03:18:05;5.40;;;2.43;;
76894;SDS011;65855;42.030;13.078;2024-03-29T03:20:30;9.60;;;2.33;;
76894;SDS011;65855;42.030;13.078;2024-03-29T03:22:57;9.73;;;3.55;;
76894;SDS011;65855;42.030;13.078;2024-03-29T03:25:24;6.55;;;2.75;;
76894;SDS011;65855;42.030;13.078;2024-03-29T03:27:49;10.25;;;2.60;;
76894;SDS011;65855;42.030;13.078;2024-03-29T03:30:15;9.15;;;2.42;;
76894;SDS011;65855;42.030;13.078;2024-03-29T03:32:40;15.80;;;3.17;;
76894;SDS011;65855;42.030;13.078;2024-03-29T03:35:05;15.83;;;2.83;;
76894;SDS011;65855;42.030;13.078;2024-03-29T03:37:31;10.05;;;2.97;;
76894;SDS011;65855;42.030;13.078;2024-03-29T03:39:56;13.40;;;3.53;;
76894;SDS011;65855;42.030;13.078;2024-03-29T03:42:22;21.75;;;4.18;;
76894;SDS011;65855;42.030;13.078;2024-03-29T03:44:47;14.82;;;3.20;;
76894;SDS011;65855;42.030;13.078;2024-03-29T03:47:12;9.63;;;4.30;;
76894;SDS011;65855;42.030;13.078;2024-03-29T03:49:38;10.18;;;3.42;;
76894;SDS011;65855;42.030;13.078;2024-03-29T03:52:03;11.43;;;2.87;;
76894;SDS011;65855;42.030;13.078;2024-03-29T03:54:28;9.82;;;2.70;;
76894;SDS011;65855;42.030;13.078;2024-03-29T03:56:54;11.75;;;2.85;;
76894;SDS011;65855;42.030;13.078;2024-03-29T03:59:19;16.45;;;4.22;;
76894;SDS011;65855;42.030;13.078;2024-03-29T04:01:45;14.83;;;3.43;;
76894;SDS011;65855;42.030;13.078;2024-03-29T04:04:10;13.18;;;3.85;;
76894;SDS011;65855;42.030;13.078;2024-03-29T04:06:35;16.07;;;3.63;;
76894;SDS011;65855;42.030;13.078;2024-03-29T04:09:00;12.68;;;4.18;;
76894;SDS011;65855;42.030;13.078;2024-03-29T04:11:26;13.55;;;4.43;;
76894;SDS011;65855;42.030;13.078;2024-03-29T04:13:52;14.48;;;3.42;;
76894;SDS011;65855;42.030;13.078;2024-03-29T04:16:17;11.13;;;3.08;;
76894;SDS011;65855;42.030;13.078;2024-03-29T04:18:43;7.80;;;2.37;;
76894;SDS011;65855;42.030;13.078;2024-03-29T04:21:08;11.40;;;2.90;;
76894;SDS011;65855;42.030;13.078;2024-03-29T04:23:33;12.43;;;2.87;;
76894;SDS011;65855;42.030;13.078;2024-03-29T04:25:59;13.20;;;3.03;;
76894;SDS011;65855;42.030;13.078;2024-03-29T04:28:25;15.10;;;4.45;;
76894;SDS011;65855;42.030;13.078;2024-03-29T04:31:00;10.45;;;3.13;;
76894;SDS011;65855;42.030;13.078;2024-03-29T04:33:25;6.28;;;2.80;;
76894;SDS011;65855;42.030;13.078;2024-03-29T04:35:54;15.35;;;3.70;;
76894;SDS011;65855;42.030;13.078;2024-03-29T04:38:20;11.75;;;2.55;;
76894;SDS011;65855;42.030;13.078;2024-03-29T04:40:45;10.00;;;3.08;;
76894;SDS011;65855;42.030;13.078;2024-03-29T04:43:11;9.88;;;3.17;;
76894;SDS011;65855;42.030;13.078;2024-03-29T04:45:36;12.77;;;3.30;;
76894;SDS011;65855;42.030;13.078;2024-03-29T04:48:01;12.10;;;3.30;;
76894;SDS011;65855;42.030;13.078;2024-03-29T04:50:27;15.85;;;3.33;;
76894;SDS011;65855;42.030;13.078;2024-03-29T04:52:53;15.50;;;3.15;;
76894;SDS011;65855;42.030;13.078;2024-03-29T04:55:18;11.73;;;4.22;;
76894;SDS011;65855;42.030;13.078;2024-03-29T04:57:43;8.18;;;3.03;;
76894;SDS011;65855;42.030;13.078;2024-03-29T05:00:09;11.40;;;2.13;;
76894;SDS011;65855;42.030;13.078;2024-03-29T05:02:34;10.52;;;2.72;;
76894;SDS011;65855;42.030;13.078;2024-03-29T05:05:00;9.05;;;2.17;;
76894;SDS011;65855;42.030;13.078;2024-03-29T05:07:25;8.47;;;2.87;;
76894;SDS011;65855;42.030;13.078;2024-03-29T05:09:50;9.67;;;2.53;;
76894;SDS011;65855;42.030;13.078;2024-03-29T05:12:16;4.38;;;1.38;;
76894;SDS011;65855;42.030;13.078;2024-03-29T05:14:41;10.95;;;3.95;;
76894;SDS011;65855;42.030;13.078;2024-03-29T05:17:06;17.98;;;5.78;;
76894;SDS011;65855;42.030;13.078;2024-03-29T05:19:32;23.33;;;4.93;;
76894;SDS011;65855;42.030;13.078;2024-03-29T05:21:57;16.65;;;3.80;;
76894;SDS011;65855;42.030;13.078;2024-03-29T05:24:22;15.63;;;3.47;;
76894;SDS011;65855;42.030;13.078;2024-03-29T05:26:48;9.95;;;2.95;;
76894;SDS011;65855;42.030;13.078;2024-03-29T05:29:13;14.30;;;3.77;;
76894;SDS011;65855;42.030;13.078;2024-03-29T05:31:39;10.95;;;3.15;;
76894;SDS011;65855;42.030;13.078;2024-03-29T05:34:04;13.80;;;3.67;;
76894;SDS011;65855;42.030;13.078;2024-03-29T05:36:30;20.08;;;3.85;;
76894;SDS011;65855;42.030;13.078;2024-03-29T05:38:55;10.52;;;2.80;;
76894;SDS011;65855;42.030;13.078;2024-03-29T05:41:21;21.75;;;5.03;;
76894;SDS011;65855;42.030;13.078;2024-03-29T05:43:46;14.90;;;3.83;;
76894;SDS011;65855;42.030;13.078;2024-03-29T05:46:12;18.93;;;3.93;;
76894;SDS011;65855;42.030;13.078;2024-03-29T05:48:37;19.63;;;3.72;;
76894;SDS011;65855;42.030;13.078;2024-03-29T05:51:04;12.98;;;3.67;;
76894;SDS011;65855;42.030;13.078;2024-03-29T05:53:29;14.90;;;3.17;;
76894;SDS011;65855;42.030;13.078;2024-03-29T05:55:55;18.92;;;8.90;;
76894;SDS011;65855;42.030;13.078;2024-03-29T05:58:20;14.98;;;3.72;;
76894;SDS011;65855;42.030;13.078;2024-03-29T06:00:46;17.15;;;5.53;;
76894;SDS011;65855;42.030;13.078;2024-03-29T06:03:11;11.02;;;4.55;;
76894;SDS011;65855;42.030;13.078;2024-03-29T06:05:37;17.20;;;6.63;;
76894;SDS011;65855;42.030;13.078;2024-03-29T06:08:02;14.40;;;6.25;;
76894;SDS011;65855;42.030;13.078;2024-03-29T06:10:27;14.63;;;4.82;;
76894;SDS011;65855;42.030;13.078;2024-03-29T06:12:53;10.38;;;4.10;;
76894;SDS011;65855;42.030;13.078;2024-03-29T06:15:18;11.40;;;3.60;;
76894;SDS011;65855;42.030;13.078;2024-03-29T06:18:02;14.32;;;4.45;;
76894;SDS011;65855;42.030;13.078;2024-03-29T06:20:28;27.60;;;13.68;;
76894;SDS011;65855;42.030;13.078;2024-03-29T06:22:53;26.17;;;12.13;;
76894;SDS011;65855;42.030;13.078;2024-03-29T06:25:18;17.95;;;4.88;;
76894;SDS011;65855;42.030;13.078;2024-03-29T06:27:44;14.93;;;6.18;;
76894;SDS011;65855;42.030;13.078;2024-03-29T06:30:13;11.98;;;3.35;;
76894;SDS011;65855;42.030;13.078;2024-03-29T06:32:38;13.02;;;4.53;;
76894;SDS011;65855;42.030;13.078;2024-03-29T06:35:03;10.07;;;5.15;;
76894;SDS011;65855;42.030;13.078;2024-03-29T06:37:29;9.98;;;5.82;;
76894;SDS011;65855;42.030;13.078;2024-03-29T06:39:54;17.30;;;3.87;;
76894;SDS011;65855;42.030;13.078;2024-03-29T06:42:20;9.38;;;3.65;;
76894;SDS011;65855;42.030;13.078;2024-03-29T06:44:45;9.77;;;3.10;;
76894;SDS011;65855;42.030;13.078;2024-03-29T06:47:11;13.50;;;2.90;;
76894;SDS011;65855;42.030;13.078;2024-03-29T06:49:36;18.30;;;6.90;;
76894;SDS011;65855;42.030;13.078;2024-03-29T06:52:01;21.13;;;8.65;;
76894;SDS011;65855;42.030;13.078;2024-03-29T06:54:27;15.90;;;6.43;;
76894;SDS011;65855;42.030;13.078;2024-03-29T06:56:53;12.73;;;4.95;;
76894;SDS011;65855;42.030;13.078;2024-03-29T06:59:19;11.90;;;3.60;;
76894;SDS011;65855;42.030;13.078;2024-03-29T07:01:44;9.38;;;3.47;;
76894;SDS011;65855;42.030;13.078;2024-03-29T07:04:09;6.57;;;2.45;;
76894;SDS011;65855;42.030;13.078;2024-03-29T07:06:35;14.52;;;2.83;;
76894;SDS011;65855;42.030;13.078;2024-03-29T07:09:02;17.15;;;3.67;;
76894;SDS011;65855;42.030;13.078;2024-03-29T07:11:28;13.23;;;4.25;;
76894;SDS011;65855;42.030;13.078;2024-03-29T07:13:54;13.10;;;4.05;;
76894;SDS011;65855;42.030;13.078;2024-03-29T07:16:19;11.38;;;3.58;;
76894;SDS011;65855;42.030;13.078;2024-03-29T07:18:44;11.13;;;3.20;;
76894;SDS011;65855;42.030;13.078;2024-03-29T07:21:09;9.50;;;2.47;;
76894;SDS011;65855;42.030;13.078;2024-03-29T07:23:35;10.50;;;2.80;;
76894;SDS011;65855;42.030;13.078;2024-03-29T07:26:01;16.80;;;2.83;;
76894;SDS011;65855;42.030;13.078;2024-03-29T07:28:27;13.82;;;2.92;;
76894;SDS011;65855;42.030;13.078;2024-03-29T07:30:52;12.82;;;2.67;;
76894;SDS011;65855;42.030;13.078;2024-03-29T07:33:18;14.65;;;3.15;;
76894;SDS011;65855;42.030;13.078;2024-03-29T07:35:46;14.00;;;3.30;;
76894;SDS011;65855;42.030;13.078;2024-03-29T07:38:11;14.35;;;2.95;;
76894;SDS011;65855;42.030;13.078;2024-03-29T07:40:36;20.88;;;3.38;;
76894;SDS011;65855;42.030;13.078;2024-03-29T07:43:02;11.18;;;1.63;;
76894;SDS011;65855;42.030;13.078;2024-03-29T07:45:28;9.48;;;2.15;;
76894;SDS011;65855;42.030;13.078;2024-03-29T07:47:54;12.85;;;2.65;;
76894;SDS011;65855;42.030;13.078;2024-03-29T07:50:19;11.10;;;2.35;;
76894;SDS011;65855;42.030;13.078;2024-03-29T07:52:45;13.95;;;2.40;;
76894;SDS011;65855;42.030;13.078;2024-03-29T07:55:10;13.05;;;2.17;;
76894;SDS011;65855;42.030;13.078;2024-03-29T07:57:36;9.80;;;1.77;;
76894;SDS011;65855;42.030;13.078;2024-03-29T08:00:01;10.87;;;2.03;;
76894;SDS011;65855;42.030;13.078;2024-03-29T08:02:26;11.63;;;2.38;;
76894;SDS011;65855;42.030;13.078;2024-03-29T08:04:52;13.88;;;2.85;;
76894;SDS011;65855;42.030;13.078;2024-03-29T08:07:18;10.63;;;1.88;;
76894;SDS011;65855;42.030;13.078;2024-03-29T08:09:43;11.90;;;1.93;;
76894;SDS011;65855;42.030;13.078;2024-03-29T08:12:08;10.38;;;2.50;;
76894;SDS011;65855;42.030;13.078;2024-03-29T08:14:34;8.82;;;1.48;;
76894;SDS011;65855;42.030;13.078;2024-03-29T08:16:59;7.55;;;2.28;;
76894;SDS011;65855;42.030;13.078;2024-03-29T08:19:29;7.03;;;1.42;;
76894;SDS011;65855;42.030;13.078;2024-03-29T08:21:55;12.57;;;1.98;;
76894;SDS011;65855;42.030;13.078;2024-03-29T08:24:20;15.63;;;2.20;;
76894;SDS011;65855;42.030;13.078;2024-03-29T08:26:45;14.63;;;1.63;;
76894;SDS011;65855;42.030;13.078;2024-03-29T08:29:10;10.37;;;2.40;;
76894;SDS011;65855;42.030;13.078;2024-03-29T08:31:36;13.73;;;2.20;;
76894;SDS011;65855;42.030;13.078;2024-03-29T08:34:01;11.77;;;2.83;;
76894;SDS011;65855;42.030;13.078;2024-03-29T08:36:26;9.75;;;2.03;;
76894;SDS011;65855;42.030;13.078;2024-03-29T08:38:52;12.00;;;2.20;;
76894;SDS011;65855;42.030;13.078;2024-03-29T08:41:17;10.73;;;1.52;;
76894;SDS011;65855;42.030;13.078;2024-03-29T08:43:42;9.68;;;1.23;;
76894;SDS011;65855;42.030;13.078;2024-03-29T08:46:08;10.18;;;1.60;;
76894;SDS011;65855;42.030;13.078;2024-03-29T08:48:34;9.57;;;1.80;;
76894;SDS011;65855;42.030;13.078;2024-03-29T08:51:16;10.85;;;1.42;;
76894;SDS011;65855;42.030;13.078;2024-03-29T08:53:42;9.05;;;2.28;;
76894;SDS011;65855;42.030;13.078;2024-03-29T08:56:07;11.37;;;2.43;;
76894;SDS011;65855;42.030;13.078;2024-03-29T08:58:32;12.03;;;2.03;;
76894;SDS011;65855;42.030;13.078;2024-03-29T09:00:58;7.13;;;1.95;;
76894;SDS011;65855;42.030;13.078;2024-03-29T09:03:23;7.72;;;1.65;;
76894;SDS011;65855;42.030;13.078;2024-03-29T09:05:49;7.15;;;2.30;;
76894;SDS011;65855;42.030;13.078;2024-03-29T09:08:15;9.25;;;2.00;;
76894;SDS011;65855;42.030;13.078;2024-03-29T09:10:40;8.50;;;1.60;;
76894;SDS011;65855;42.030;13.078;2024-03-29T09:13:05;7.97;;;1.58;;
76894;SDS011;65855;42.030;13.078;2024-03-29T09:15:32;10.75;;;1.75;;
76894;SDS011;65855;42.030;13.078;2024-03-29T09:17:57;10.82;;;1.70;;
76894;SDS011;65855;42.030;13.078;2024-03-29T09:20:26;8.80;;;1.73;;
76894;SDS011;65855;42.030;13.078;2024-03-29T09:22:51;12.33;;;2.20;;
76894;SDS011;65855;42.030;13.078;2024-03-29T09:25:17;8.60;;;2.17;;
76894;SDS011;65855;42.030;13.078;2024-03-29T09:27:44;12.98;;;2.47;;
76894;SDS011;65855;42.030;13.078;2024-03-29T09:30:10;8.50;;;1.50;;
76894;SDS011;65855;42.030;13.078;2024-03-29T09:32:36;8.40;;;1.77;;
76894;SDS011;65855;42.030;13.078;2024-03-29T09:35:01;12.80;;;1.65;;
76894;SDS011;65855;42.030;13.078;2024-03-29T09:37:26;10.23;;;1.73;;
76894;SDS011;65855;42.030;13.078;2024-03-29T09:39:52;11.75;;;1.95;;
76894;SDS011;65855;42.030;13.078;2024-03-29T09:42:17;9.68;;;1.60;;
76894;SDS011;65855;42.030;13.078;2024-03-29T09:44:43;13.18;;;2.20;;
76894;SDS011;65855;42.030;13.078;2024-03-29T09:47:09;12.27;;;1.98;;
76894;SDS011;65855;42.030;13.078;2024-03-29T09:49:36;13.68;;;2.85;;
76894;SDS011;65855;42.030;13.078;2024-03-29T09:52:02;12.75;;;3.33;;
76894;SDS011;65855;42.030;13.078;2024-03-29T09:54:28;11.38;;;2.35;;
76894;SDS011;65855;42.030;13.078;2024-03-29T09:56:54;13.13;;;3.42;;
76894;SDS011;65855;42.030;13.078;2024-03-29T09:59:20;11.63;;;1.48;;
76894;SDS011;65855;42.030;13.078;2024-03-29T10:01:45;9.40;;;2.10;;
76894;SDS011;65855;42.030;13.078;2024-03-29T10:04:11;18.80;;;1.67;;
76894;SDS011;65855;42.030;13.078;2024-03-29T10:06:37;10.35;;;2.05;;
76894;SDS011;65855;42.030;13.078;2024-03-29T10:09:03;17.70;;;2.10;;
76894;SDS011;65855;42.030;13.078;2024-03-29T10:11:29;8.30;;;3.05;;
76894;SDS011;65855;42.030;13.078;2024-03-29T10:13:54;16.17;;;3.13;;
76894;SDS011;65855;42.030;13.078;2024-03-29T10:16:19;8.20;;;1.50;;
76894;SDS011;65855;42.030;13.078;2024-03-29T10:18:49;10.38;;;2.47;;
76894;SDS011;65855;42.030;13.078;2024-03-29T10:21:15;9.13;;;2.38;;
76894;SDS011;65855;42.030;13.078;2024-03-29T10:23:40;15.10;;;2.08;;
76894;SDS011;65855;42.030;13.078;2024-03-29T10:26:06;11.90;;;2.15;;
76894;SDS011;65855;42.030;13.078;2024-03-29T10:28:33;14.93;;;3.58;;
76894;SDS011;65855;42.030;13.078;2024-03-29T10:30:58;19.75;;;3.00;;
76894;SDS011;65855;42.030;13.078;2024-03-29T10:33:27;14.30;;;2.75;;
76894;SDS011;65855;42.030;13.078;2024-03-29T10:35:53;14.63;;;2.85;;
76894;SDS011;65855;42.030;13.078;2024-03-29T10:38:20;17.05;;;2.88;;
76894;SDS011;65855;42.030;13.078;2024-03-29T10:40:46;14.02;;;2.90;;
76894;SDS011;65855;42.030;13.078;2024-03-29T10:43:11;13.73;;;3.30;;
76894;SDS011;65855;42.030;13.078;2024-03-29T10:45:41;9.55;;;0.90;;
76894;SDS011;65855;42.030;13.078;2024-03-29T10:48:08;12.90;;;2.70;;
76894;SDS011;65855;42.030;13.078;2024-03-29T10:50:37;17.08;;;2.70;;
76894;SDS011;65855;42.030;13.078;2024-03-29T10:53:04;15.93;;;2.10;;
76894;SDS011;65855;42.030;13.078;2024-03-29T10:55:30;8.50;;;1.38;;
76894;SDS011;65855;42.030;13.078;2024-03-29T10:57:57;15.18;;;1.83;;
76894;SDS011;65855;42.030;13.078;2024-03-29T11:00:23;16.45;;;4.15;;
76894;SDS011;65855;42.030;13.078;2024-03-29T11:03:09;14.63;;;2.72;;
76894;SDS011;65855;42.030;13.078;2024-03-29T11:05:38;12.82;;;2.00;;
76894;SDS011;65855;42.030;13.078;2024-03-29T11:08:06;11.98;;;3.13;;
76894;SDS011;65855;42.030;13.078;2024-03-29T11:10:42;17.00;;;3.17;;
76894;SDS011;65855;42.030;13.078;2024-03-29T11:15:51;21.63;;;5.68;;
76894;SDS011;65855;42.030;13.078;2024-03-29T11:18:17;15.10;;;2.00;;
76894;SDS011;65855;42.030;13.078;2024-03-29T11:20:44;12.32;;;2.42;;
76894;SDS011;65855;42.030;13.078;2024-03-29T11:23:15;11.75;;;2.95;;
76894;SDS011;65855;42.030;13.078;2024-03-29T11:25:44;23.42;;;3.60;;
76894;SDS011;65855;42.030;13.078;2024-03-29T11:28:13;27.13;;;5.63;;
76894;SDS011;65855;42.030;13.078;2024-03-29T11:30:46;25.85;;;2.88;;
76894;SDS011;65855;42.030;13.078;2024-03-29T11:35:56;22.63;;;4.38;;
76894;SDS011;65855;42.030;13.078;2024-03-29T11:38:22;28.67;;;4.53;;
76894;SDS011;65855;42.030;13.078;2024-03-29T11:43:28;16.30;;;3.67;;
76894;SDS011;65855;42.030;13.078;2024-03-29T11:45:54;35.85;;;5.40;;
76894;SDS011;65855;42.030;13.078;2024-03-29T11:48:23;32.47;;;5.30;;
76894;SDS011;65855;42.030;13.078;2024-03-29T11:50:50;26.45;;;5.05;;
76894;SDS011;65855;42.030;13.078;2024-03-29T11:53:16;33.85;;;6.55;;
76894;SDS011;65855;42.030;13.078;2024-03-29T11:55:41;40.70;;;6.77;;
76894;SDS011;65855;42.030;13.078;2024-03-29T11:58:06;37.70;;;5.80;;
76894;SDS011;65855;42.030;13.078;2024-03-29T12:00:32;28.25;;;4.15;;
76894;SDS011;65855;42.030;13.078;2024-03-29T12:02:57;44.78;;;5.65;;
76894;SDS011;65855;42.030;13.078;2024-03-29T12:05:23;25.15;;;5.70;;
76894;SDS011;65855;42.030;13.078;2024-03-29T12:07:48;41.42;;;7.20;;
76894;SDS011;65855;42.030;13.078;2024-03-29T12:10:13;40.65;;;8.05;;
76894;SDS011;65855;42.030;13.078;2024-03-29T12:12:39;31.80;;;6.17;;
76894;SDS011;65855;42.030;13.078;2024-03-29T12:15:06;44.22;;;7.00;;
76894;SDS011;65855;42.030;13.078;2024-03-29T12:17:32;42.85;;;7.38;;
76894;SDS011;65855;42.030;13.078;2024-03-29T12:19:58;39.55;;;7.50;;
76894;SDS011;65855;42.030;13.078;2024-03-29T12:22:27;47.60;;;7.80;;
76894;SDS011;65855;42.030;13.078;2024-03-29T12:24:52;52.55;;;8.50;;
76894;SDS011;65855;42.030;13.078;2024-03-29T12:27:18;31.67;;;6.88;;
76894;SDS011;65855;42.030;13.078;2024-03-29T12:29:43;51.50;;;8.70;;
76894;SDS011;65855;42.030;13.078;2024-03-29T12:32:08;28.20;;;8.00;;
76894;SDS011;65855;42.030;13.078;2024-03-29T12:34:34;69.00;;;9.45;;
76894;SDS011;65855;42.030;13.078;2024-03-29T12:37:00;42.25;;;7.40;;
76894;SDS011;65855;42.030;13.078;2024-03-29T12:39:25;55.20;;;7.20;;
76894;SDS011;65855;42.030;13.078;2024-03-29T12:41:52;41.60;;;6.80;;
76894;SDS011;65855;42.030;13.078;2024-03-29T12:44:21;43.88;;;9.68;;
76894;SDS011;65855;42.030;13.078;2024-03-29T12:46:46;22.55;;;4.50;;
76894;SDS011;65855;42.030;13.078;2024-03-29T12:49:12;45.80;;;6.85;;
76894;SDS011;65855;42.030;13.078;2024-03-29T12:51:39;37.55;;;7.03;;
76894;SDS011;65855;42.030;13.078;2024-03-29T12:54:05;35.75;;;4.93;;
76894;SDS011;65855;42.030;13.078;2024-03-29T12:56:30;39.05;;;4.93;;
76894;SDS011;65855;42.030;13.078;2024-03-29T12:58:56;39.22;;;7.10;;
76894;SDS011;65855;42.030;13.078;2024-03-29T13:01:22;37.83;;;6.10;;
76894;SDS011;65855;42.030;13.078;2024-03-29T13:03:47;50.65;;;9.00;;
76894;SDS011;65855;42.030;13.078;2024-03-29T13:06:13;37.38;;;6.32;;
76894;SDS011;65855;42.030;13.078;2024-03-29T13:08:38;33.65;;;4.38;;
76894;SDS011;65855;42.030;13.078;2024-03-29T13:11:03;39.30;;;6.32;;
76894;SDS011;65855;42.030;13.078;2024-03-29T13:13:29;30.50;;;4.63;;
76894;SDS011;65855;42.030;13.078;2024-03-29T13:15:54;21.60;;;5.25;;
76894;SDS011;65855;42.030;13.078;2024-03-29T13:18:19;22.60;;;3.40;;
76894;SDS011;65855;42.030;13.078;2024-03-29T13:20:45;37.42;;;7.93;;
76894;SDS011;65855;42.030;13.078;2024-03-29T13:23:10;33.58;;;6.63;;
76894;SDS011;65855;42.030;13.078;2024-03-29T13:25:36;38.25;;;6.93;;
76894;SDS011;65855;42.030;13.078;2024-03-29T13:28:02;27.73;;;5.40;;
76894;SDS011;65855;42.030;13.078;2024-03-29T13:30:28;22.20;;;4.78;;
76894;SDS011;65855;42.030;13.078;2024-03-29T13:32:53;49.10;;;7.25;;
76894;SDS011;65855;42.030;13.078;2024-03-29T13:35:19;47.15;;;7.28;;
76894;SDS011;65855;42.030;13.078;2024-03-29T13:37:46;34.65;;;6.25;;
76894;SDS011;65855;42.030;13.078;2024-03-29T13:40:12;22.92;;;4.72;;
76894;SDS011;65855;42.030;13.078;2024-03-29T13:42:37;33.63;;;7.18;;
76894;SDS011;65855;42.030;13.078;2024-03-29T13:45:03;31.40;;;7.32;;
76894;SDS011;65855;42.030;13.078;2024-03-29T13:47:30;26.50;;;5.00;;
76894;SDS011;65855;42.030;13.078;2024-03-29T13:49:55;33.75;;;5.80;;
76894;SDS011;65855;42.030;13.078;2024-03-29T13:52:21;40.33;;;6.72;;
76894;SDS011;65855;42.030;13.078;2024-03-29T13:54:47;16.02;;;5.45;;
76894;SDS011;65855;42.030;13.078;2024-03-29T13:57:13;33.33;;;6.95;;
76894;SDS011;65855;42.030;13.078;2024-03-29T13:59:38;20.73;;;4.78;;
76894;SDS011;65855;42.030;13.078;2024-03-29T14:02:04;27.92;;;6.57;;
76894;SDS011;65855;42.030;13.078;2024-03-29T14:04:30;24.88;;;5.00;;
76894;SDS011;65855;42.030;13.078;2024-03-29T14:06:56;25.02;;;6.15;;
76894;SDS011;65855;42.030;13.078;2024-03-29T14:09:21;36.83;;;6.47;;
76894;SDS011;65855;42.030;13.078;2024-03-29T14:11:47;40.28;;;7.80;;
76894;SDS011;65855;42.030;13.078;2024-03-29T14:14:12;36.42;;;5.35;;
76894;SDS011;65855;42.030;13.078;2024-03-29T14:16:38;31.23;;;6.30;;
76894;SDS011;65855;42.030;13.078;2024-03-29T14:19:03;26.27;;;4.30;;
76894;SDS011;65855;42.030;13.078;2024-03-29T14:21:28;29.65;;;5.82;;
76894;SDS011;65855;42.030;13.078;2024-03-29T14:23:54;22.92;;;4.45;;
76894;SDS011;65855;42.030;13.078;2024-03-29T14:26:19;50.00;;;6.25;;